Airfield :
LOGIN :

Register | Disclaimer

   EN    FR    IT 

 










Legend :    VFR   Marginal VFR   IFR   Intensive IFR   Very Intensive IFR
Visi :
Ceiling :
>= 8 km
>= 3000ft
5 to 8 km
1000 to 3000 ft
1500m to 5 km
500 to 1000 ft
800 to 1500m
200 to 500 ft
< 800m
< 200 ft
Symbols :   Thunderstorms  Fog  Heavy snow  Heavy precipitations  Wind > 20 kt
SIGMETs :     Misc.  Thunderstorms  Icing  Turbulence  Mountain Waves  Volcanic Ashes







- Airport Elevation : 978 ft
- IATA code : LNZ


LOWL - Linz

CURRENT METAR :
  • 180420Z 26004KT 9999 FEW050 16/13 Q1019 NOSIG

EXPIRED METARs :
  • 180350Z 27004KT 9999 FEW050 16/13 Q1019 NOSIG
  • 180320Z 25004KT 9999 FEW060 16/13 Q1018 NOSIG
  • 180250Z AUTO 22003KT 190V250 9999 NSC 16/13 Q1018
  • 180220Z AUTO 26004KT 9999 NSC 17/13 Q1018
  • 180150Z AUTO 25003KT 220V300 9999 NSC 17/14 Q1018

TAF TAF LOWL
Valid from the 18 at 00:00 until the 19 at 00:00 UTC


172315Z 1800/1824 VRB02KT CAVOK TX30/1815Z TN17/1804Z
TEMPO 1808/1816 28007KT 9999 FEW050
No reported NOTAMs for that airfield.



MET'MAP, your aeronautical weather chart ! - Copyright ORBIFLY December 2007 - Disclaimer

ORBIFLY MET'MAP TEAM :

Programming & Development : Alexandra Zaïnal
Concept & Development : Baudouin d'Aumeries
Co-Development & Prog : Marc-Olivier Méhu
Technical & hardware support : Manuel Goepfert

Contact : metmap@orbifly.com




SOURCES & CREDITS :

   NOAA